チューク国際空港の過去48時間の天気

チューク国際空港 (Weno Island, Chuuk Int. Airp., Micronesia)

現在時刻: 2/28 00:02 +10 (2/27 14:02 UTC) 以下の時間は現地時間です。

過去48時間のMETAR気象情報
時間 風向 風速(m/s) 視程 気温(℃) 湿度(%) 気圧(hPa) 天気現象
27 22:52 東北東 3 10km以上 27.7 84 1010.3
27 21:50 東北東 3 10km以上 27.6 84 1010.1
27 20:53 東北東 4 10km以上 27.8 82 1010
27 19:52 北北東 4 10km以上 27.9 84 1008.9
27 18:50 3 10km以上 27.8 84 1008.3
27 17:50 3 10km以上 28.3 84 1007.8
27 16:51 3 10km以上 28.9 84 1007.4
27 15:50 北東 5 10km以上 29.6 80 1006.9
27 14:50 北北東 6 10km以上 30 80 1006.9
27 13:50 東北東 6 10km以上 30.6 77 1007.4
27 12:52 北東 4 10km以上 30 80 1007.9
27 11:50 北東 4 10km以上 30.9 73 1008.8
27 10:53 北東 4 10km以上 30.4 74 1009.6
27 09:54 北東 4 10km以上 30.1 75 1010.5
27 08:50 3 10km以上 29.5 77 1010.5
27 07:52 北東 4 10km以上 28.1 83 1010
27 06:52 3 10km以上 27.7 85 1009.1
27 05:52 3 10km以上 27.2 85 1008.4
27 04:52 4 10km以上 27.4 87 1008.3
27 03:51 北北東 4 10km以上 27.3 89 1007.9
27 02:51 北北東 4 10km以上 27.1 84 1007.8
27 01:50 北東 3 10km以上 27.3 83 1008.1
27 00:50 北東 4 10km以上 27.3 83 1008.9
26 23:51 北北東 5 10km以上 27.5 84 1009.3
26 22:52 北北東 4 10km以上 27.6 84 1010
26 21:50 北東 5 10km以上 27.7 84 1010.5
26 20:50 北東 4 10km以上 27.9 85 1010.5
26 19:50 北東 5 10km以上 27.9 85 1010.1
26 18:54 北北東 4 10km以上 27.9 85 1009.4
26 14:52 北東 6 10km以上 29.1 81 1008.3 周辺でしゅう雨
26 13:51 北東 4 10km以上 28.5 86 1008.6 周辺でしゅう雨
26 12:50 北東 4 10km以上 29.3 85 1009.6
26 11:55 北東 4 10km以上 28.9 86 1010.3
26 10:50 北東 4 10km以上 30.2 82 1011.1
26 09:50 北東 4 10km以上 29.7 81 1012 周辺でしゅう雨
26 08:50 北東 4 10km以上 29.2 83 1011.6
26 07:50 3 10km以上 28.4 85 1011.3
26 06:52 北北東 4 10km以上 28 87 1010.5
26 05:50 北東 4 10km以上 27.7 89 1009.6
26 04:50 3 10km以上 27.8 86 1008.9
26 03:51 3 10km以上 27.6 89 1008.6
26 02:52 北東 6 10km以上 27.9 87 1008.6
26 01:51 3 10km以上 28 86 1008.8
26 00:52 3 10km以上 28.1 84 1009.4
PTKK 271252Z 07006KT 15SM FEW015 SCT300 28/25 A2983 RMK SLP103 T02770248
PTKK 271150Z 07006KT 15SM FEW015 SCT300 28/25 A2983 RMK SLP101 8/101 T02760247 10296 20276 52019
PTKK 271053Z 06007KT 15SM FEW015 SCT300 28/24 A2982 RMK SLP100 T02780244
PTKK 270952Z 03007KT 15SM FEW015 SCT300 28/25 A2979 RMK SLP089 T02790250
PTKK 270850Z VRB05KT 15SM FEW014 FEW120 BKN280 28/25 A2977 RMK SLP083 8/171 T02780248 52014
PTKK 270750Z VRB05KT 15SM FEW012 FEW030 SCT120 BKN280 28/25 A2975 RMK SLP078 T02830253
PTKK 270651Z VRB05KT 15SM FEW014 SCT120 BKN290 29/26 A2974 RMK SLP074 T02890259
PTKK 270550Z 04010KT 15SM FEW014 FEW120 SCT300 30/26 A2973 RMK SLP069 8/171 T02960257 10309 20296 56010
PTKK 270450Z 03012KT 15SM FEW016 FEW120 SCT300 30/26 A2973 RMK SLP069 T03000262
PTKK 270350Z 06012KT 15SM FEW016 FEW300 31/26 A2974 RMK SLP074 T03060260
PTKK 270252Z 04008KT 15SM FEW016 FEW300 30/26 A2976 RMK SLP079 8/101 T03000262 57025
PTKK 270150Z 04007KT 15SM FEW015 31/26 A2978 RMK SLP088 T03090256
PTKK 270053Z 04007KT 15SM FEW015 BKN290 30/25 A2981 RMK SLP096 T03040253
PTKK 262354Z 04008KT 15SM FEW015 BKN290 30/25 A2983 RMK SLP105 8/101 T03010252 10301 20272 51014
PTKK 262250Z VRB06KT 15SM FEW015 SCT280 30/25 A2983 RMK SLP105 T02950251
PTKK 262152Z 05007KT 15SM FEW014 SCT120 BKN280 28/25 A2982 RMK SLP100 T02810249
PTKK 262052Z VRB05KT 15SM SCT014CB BKN120 OVC280 28/25 A2979 RMK CB ALQDS SLP091 8/371 T02770250 52012
PTKK 261952Z VRB05KT 15SM FEW014CB SCT120 BKN280 27/24 A2977 RMK CB E SLP084 T02720244
PTKK 261852Z 08007KT 15SM FEW014 BKN280 27/25 A2977 RMK SLP083 T02740251
PTKK 261751Z 03007KT 15SM FEW014 BKN280 27/25 A2976 RMK SLP079 8/101 T02730254 10277 20271 55010
PTKK 261651Z 03007KT 15SM FEW014 SCT280 27/24 A2976 RMK SLP078 T02710241
PTKK 261550Z 05006KT 15SM FEW014 SCT280 27/24 A2976 RMK SLP081 T02730242
PTKK 261450Z 04007KT 15SM FEW014 SCT280 27/24 A2979 RMK SLP089 8/101 T02730242 57015
PTKK 261351Z 02009KT 15SM FEW014 BKN280 28/25 A2980 RMK SLP093 T02750246
PTKK 261252Z 03007KT 15SM FEW014 SCT280 28/25 A2982 RMK SLP100 T02760247
PTKK 261150Z 04010KT 15SM FEW014 SCT280 28/25 A2983 RMK SLP105 60004 70009 8/101 T02770248 10281 20277 51010
PTKK 261050Z 05008KT 15SM FEW014 BKN280 28/25 A2983 RMK SLP105 T02790252
PTKK 260950Z 04010KT 15SM FEW014 BKN280 28/25 A2982 RMK SLP101 T02790251
PTKK 260854Z 03008KT 15SM FEW014 BKN290 28/25 A2981 RMK SLP094 60004 8/101 T02790251 52010
PTKK 260452Z 04012KT 14SM VCSH SCT012CB BKN120 OVC280 29/26 A2977 RMK SHRAB10E30 VCSH SW CB ALQDS MOV SW SLP083 T02910256
PTKK 260351Z 04008KT 15SM VCSH SCT014CB BKN120 OVC280 29/26 A2978 RMK SHRAB33E45 VCSH SW CB ALQDS MOV SW SLP086 T02850259
PTKK 260250Z 04008KT 15SM FEW014CB BKN120 OVC280 29/27 A2981 RMK CB N-NE AND SE MOV SW SLP096 8/371 T02930265 57024
PTKK 260155Z 04008KT 15SM FEW014CB BKN120 OVC280 29/26 A2983 RMK CB N-NE AND S MOV SW SLP103 T02890264
PTKK 260050Z 04007KT 15SM FEW014CB BKN120 OVC280 30/27 A2986 RMK CB NW-NE MOV SW SLP111 T03020267
PTKK 262350Z 04007KT 15SM VCSH SCT014CB BKN120 OVC280 30/26 A2988 RMK VCSH E CB ALQDS MOV SW SLP120 8/371 T02970261 10297 20276 52015
PTKK 252250Z 04008KT 15SM FEW014 SCT120 BKN280 29/26 A2987 RMK SLP116 T02920261
PTKK 252150Z VRB06KT 15SM FEW014 SCT120 BKN280 28/26 A2986 RMK SLP113 T02840257
PTKK 252052Z 03007KT 15SM FEW014 BKN120 OVC280 28/26 A2983 RMK SLP105 8/171 T02800256 52019
PTKK 251950Z 04008KT 15SM SCT014CB BKN120 BKN280 28/26 A2981 RMK CB ALQDS MOV SW SLP096 T02770257
PTKK 251850Z VRB05KT 15SM FEW014 BKN280 28/25 A2979 RMK SLP089 T02780253
PTKK 251751Z VRB06KT 15SM FEW014 BKN280 28/26 A2978 RMK SHRAB06E23 SLP086 60000 8/101 T02760256 10281 20276 56008
PTKK 251652Z 05011KT 15SM FEW013TCU BKN280 28/26 A2978 RMK TCU NW AND E SLP086 T02790256
PTKK 251551Z VRB05KT 15SM FEW014 BKN280 28/26 A2978 RMK SLP088 T02800255
PTKK 251452Z VRB05KT 15SM FEW014 BKN280 28/25 A2981 RMK SLP094 8/101 T02810251 57012